Terminal Aerodrome Forecast
Issued by NWS

Home | Current Version | Previous Version | Text Only | Print | Product List | Glossary On
Versions: 1 2 3 4 5 6 7 8 9 10 11 12 13 14 15 16 17 18 19 20 21
000
FTUS43 KDVN 202100 AAA
TAFCID
TAF AMD
KCID 202130Z 2022/2118 16005KT 1SM BR OVC006
      TEMPO 2022/2024 2SM BR OVC004
     FM210100 17006KT 2SM BR VCSH OVC004=

USA.gov is the U.S. government's official web portal to all federal, state and local government web resources and services.